Time;durP1;ratioP1;P1;durP2;ratioP2;P2;SDS_P1;SDS_P2;PMS_P1;PMS_P2;Temp;Humidity;BMP_temperature;BMP_pressure;BME280_temperature;BME280_humidity;BME280_pressure;Samples;Min_cycle;Max_cycle;Signal;HPM_P1;HPM_P2
2020/12/25 00:01:47;;;;;;;4.00;1.88;;;;;;;-2.08;98.13;99489.38;4939043;29;20141;-68
2020/12/25 00:04:35;;;;;;;2.38;1.40;;;;;;;-2.05;98.76;99498.66;4939485;29;20058;-71
2020/12/25 00:07:21;;;;;;;2.90;1.42;;;;;;;-2.03;98.94;99494.34;4951365;29;20134;-67
2020/12/25 00:10:08;;;;;;;4.43;1.80;;;;;;;-2.04;97.69;99504.63;4952543;29;20102;-70
2020/12/25 00:12:54;;;;;;;4.32;2.25;;;;;;;-2.08;98.15;99497.06;4952255;29;20498;-69
2020/12/25 00:15:40;;;;;;;3.20;1.90;;;;;;;-2.10;97.70;99506.50;4939260;29;20043;-68
2020/12/25 00:18:27;;;;;;;4.38;2.00;;;;;;;-2.11;97.87;99507.41;4952612;29;20047;-72
2020/12/25 00:21:16;;;;;;;4.68;2.30;;;;;;;-2.13;98.04;99508.34;4951691;29;20055;-71
2020/12/25 00:24:04;;;;;;;4.78;2.38;;;;;;;-2.13;97.52;99516.03;4952044;28;21110;-70
2020/12/25 00:26:51;;;;;;;4.20;2.20;;;;;;;-2.16;98.46;99513.56;4952471;29;20047;-71
2020/12/25 00:29:37;;;;;;;4.80;2.25;;;;;;;-2.15;98.26;99510.94;4952334;29;20466;-68
2020/12/25 00:32:23;;;;;;;6.70;2.80;;;;;;;-2.15;97.85;99513.50;4952466;29;20118;-69
2020/12/25 00:35:10;;;;;;;5.90;2.20;;;;;;;-2.13;98.43;99518.59;4941486;29;20051;-72
2020/12/25 00:37:58;;;;;;;4.53;2.28;;;;;;;-2.13;98.20;99522.00;4942840;29;20075;-73
2020/12/25 00:40:44;;;;;;;3.90;2.20;;;;;;;-2.12;97.82;99523.66;4939305;29;20561;-68
2020/12/25 00:43:31;;;;;;;5.00;2.42;;;;;;;-2.14;97.95;99520.28;4955991;29;20035;-69
2020/12/25 00:46:18;;;;;;;6.22;2.83;;;;;;;-2.11;98.03;99533.00;4956143;28;20059;-71
2020/12/25 00:49:05;;;;;;;5.05;2.72;;;;;;;-2.13;98.07;99528.84;4955877;28;20078;-71
2020/12/25 00:51:51;;;;;;;7.90;3.13;;;;;;;-2.14;98.91;99537.38;4952592;29;20094;-68
2020/12/25 00:54:39;;;;;;;5.90;3.13;;;;;;;-2.14;98.65;99539.94;4934265;29;20383;-66
2020/12/25 00:57:33;;;;;;;;;;;;;;;-2.15;98.55;99538.28;4942321;29;20047;-69
2020/12/25 01:00:27;;;;;;;5.78;2.50;;;;;;;-2.17;97.89;99535.78;4953005;28;20362;-70
2020/12/25 01:03:13;;;;;;;7.10;2.83;;;;;;;-2.14;98.33;99550.19;4952510;29;20051;-71
2020/12/25 01:06:00;;;;;;;7.60;3.38;;;;;;;-2.17;98.58;99545.19;4956009;28;20047;-70
2020/12/25 01:08:48;;;;;;;7.30;3.28;;;;;;;-2.15;98.75;99557.03;4955344;29;20059;-69
2020/12/25 01:11:35;;;;;;;8.18;3.08;;;;;;;-2.19;97.86;99557.19;4955052;28;20051;-70
2020/12/25 01:14:21;;;;;;;9.90;3.65;;;;;;;-2.19;98.77;99558.00;4955137;29;20122;-69
2020/12/25 01:17:07;;;;;;;7.25;3.38;;;;;;;-2.18;98.30;99551.19;4955451;29;20047;-73
2020/12/25 01:19:54;;;;;;;7.35;3.00;;;;;;;-2.19;99.13;99554.63;4942038;29;20483;-70
2020/12/25 01:22:40;;;;;;;6.32;2.85;;;;;;;-2.18;98.79;99558.88;4954612;29;20063;-70
2020/12/25 01:25:27;;;;;;;7.53;3.55;;;;;;;-2.17;99.02;99563.13;4949928;29;20141;-72
2020/12/25 01:28:13;;;;;;;5.68;3.20;;;;;;;-2.18;98.41;99557.16;4955386;29;20048;-72
2020/12/25 01:31:02;;;;;;;7.93;3.60;;;;;;;-2.16;99.30;99564.78;4952515;29;20069;-68
2020/12/25 01:33:49;;;;;;;6.00;2.50;;;;;;;-2.21;97.98;99570.03;4952211;29;20059;-68
2020/12/25 01:36:35;;;;;;;8.10;3.47;;;;;;;-2.18;98.03;99566.56;4953296;29;20061;-72
2020/12/25 01:39:21;;;;;;;6.38;3.30;;;;;;;-2.24;98.73;99566.72;4941674;29;20051;-69
2020/12/25 01:42:08;;;;;;;7.35;3.67;;;;;;;-2.25;98.24;99577.88;4952519;29;20055;-68
2020/12/25 01:44:54;;;;;;;6.35;3.17;;;;;;;-2.25;98.24;99578.69;4938981;29;20138;-73
2020/12/25 01:47:41;;;;;;;8.82;4.00;;;;;;;-2.23;98.95;99587.19;4952773;29;20051;-68
2020/12/25 01:50:34;;;;;;;8.60;3.70;;;;;;;-2.27;97.98;99582.22;4954762;29;20561;-70
2020/12/25 01:53:23;;;;;;;6.38;2.88;;;;;;;-2.26;99.00;99589.84;4954462;29;20075;-73
2020/12/25 01:56:10;;;;;;;8.70;3.72;;;;;;;-2.31;98.45;99594.25;4954885;29;20567;-73
2020/12/25 01:58:57;;;;;;;6.57;3.45;;;;;;;-2.24;99.05;99594.91;4951016;28;20110;-70
2020/12/25 02:01:43;;;;;;;7.63;3.85;;;;;;;-2.25;99.30;99598.34;4954450;28;20517;-71
2020/12/25 02:04:31;;;;;;;8.82;3.88;;;;;;;-2.28;97.81;99601.84;4954310;29;20394;-71
2020/12/25 02:07:17;;;;;;;8.30;3.58;;;;;;;-2.24;98.47;99603.41;4954584;29;20110;-69
2020/12/25 02:10:04;;;;;;;6.82;3.40;;;;;;;-2.24;98.21;99603.41;4940948;29;20081;-70
2020/12/25 02:12:51;;;;;;;8.65;3.42;;;;;;;-2.21;98.20;99607.63;4954061;29;20110;-71
2020/12/25 02:15:38;;;;;;;8.55;3.72;;;;;;;-2.21;98.53;99603.34;4954215;28;20059;-72
2020/12/25 02:18:32;;;;;;;8.00;2.90;;;;;;;-2.24;98.22;99598.31;4939067;29;20047;-72
2020/12/25 02:21:18;;;;;;;6.68;3.33;;;;;;;-2.23;98.92;99609.38;4953690;29;20118;-70
2020/12/25 02:24:05;;;;;;;10.18;3.90;;;;;;;-2.21;98.88;99611.03;4954042;28;20047;-72
2020/12/25 02:26:51;;;;;;;7.88;2.97;;;;;;;-2.21;98.73;99608.47;4954136;29;20498;-69
2020/12/25 02:29:37;;;;;;;7.00;3.00;;;;;;;-2.20;98.66;99609.28;4939742;28;20091;-71
2020/12/25 02:32:24;;;;;;;5.10;3.00;;;;;;;-2.18;98.04;99612.66;4954032;28;20074;-72
2020/12/25 02:35:23;;;;;;;8.45;3.72;;;;;;;-2.25;98.01;99614.56;4940758;29;20090;-69
2020/12/25 02:38:10;;;;;;;6.70;3.17;;;;;;;-2.22;98.59;99611.91;4953990;29;20039;-68
2020/12/25 02:40:56;;;;;;;7.53;3.90;;;;;;;-2.28;98.19;99614.63;4953801;29;20435;-67
2020/12/25 02:43:43;;;;;;;7.80;3.72;;;;;;;-2.22;98.04;99616.19;4940420;29;20798;-69
2020/12/25 02:46:29;;;;;;;8.00;3.47;;;;;;;-2.28;99.21;99617.19;4953579;28;20055;-70
2020/12/25 02:49:15;;;;;;;8.18;3.60;;;;;;;-2.27;98.90;99618.06;4940440;28;20499;-72
2020/12/25 02:52:02;;;;;;;7.68;3.20;;;;;;;-2.26;98.35;99619.72;4953232;29;20109;-70
2020/12/25 02:54:49;;;;;;;6.97;3.33;;;;;;;-2.27;97.79;99611.22;4953447;28;20051;-71
2020/12/25 02:57:35;;;;;;;8.90;4.07;;;;;;;-2.28;98.12;99614.63;4953287;28;20051;-66
2020/12/25 03:00:21;;;;;;;6.80;3.05;;;;;;;-2.27;98.29;99610.38;4953581;28;20133;-69
2020/12/25 03:03:08;;;;;;;7.53;3.00;;;;;;;-2.28;98.44;99609.50;4951838;29;20055;-71
2020/12/25 03:05:54;;;;;;;6.65;3.03;;;;;;;-2.25;98.93;99613.72;4954013;28;20114;-70
2020/12/25 03:08:41;;;;;;;6.65;3.38;;;;;;;-2.28;99.03;99612.06;4953361;29;20055;-69
2020/12/25 03:11:28;;;;;;;5.50;2.90;;;;;;;-2.31;99.08;99604.50;4953445;28;20048;-66
2020/12/25 03:14:14;;;;;;;5.75;2.88;;;;;;;-2.29;99.14;99605.28;4953135;28;20399;-70
2020/12/25 03:17:01;;;;;;;6.20;2.83;;;;;;;-2.36;98.55;99608.94;4954682;28;20078;-69
2020/12/25 03:19:47;;;;;;;6.60;3.05;;;;;;;-2.27;98.34;99616.34;4953233;28;20510;-72
2020/12/25 03:22:34;;;;;;;6.47;2.72;;;;;;;-2.30;99.45;99613.03;4953334;29;20073;-70
2020/12/25 03:25:20;;;;;;;7.15;2.97;;;;;;;-2.28;98.84;99617.19;4953374;29;20051;-69
2020/12/25 03:28:07;;;;;;;6.20;3.10;;;;;;;-2.24;99.45;99623.91;4953211;29;20125;-70
2020/12/25 03:30:53;;;;;;;5.43;2.78;;;;;;;-2.27;98.17;99624.03;4952828;28;20047;-72
2020/12/25 03:33:39;;;;;;;6.05;3.00;;;;;;;-2.31;98.74;99627.53;4949882;28;20084;-70
2020/12/25 03:36:26;;;;;;;5.53;3.22;;;;;;;-2.27;98.40;99626.59;4953158;29;20098;-68
2020/12/25 03:39:12;;;;;;;5.35;2.90;;;;;;;-2.24;98.35;99633.31;4952984;28;20195;-70
2020/12/25 03:41:59;;;;;;;5.40;2.53;;;;;;;-2.23;98.03;99635.84;4951765;29;20106;-69
2020/12/25 03:44:45;;;;;;;3.85;2.60;;;;;;;-2.23;98.28;99637.53;4952622;29;20098;-66
2020/12/25 03:47:32;;;;;;;5.15;2.95;;;;;;;-2.27;98.31;99643.66;4952836;28;20063;-70
2020/12/25 03:50:18;;;;;;;5.28;2.60;;;;;;;-2.24;98.81;99646.13;4953938;28;20150;-70
2020/12/25 03:53:04;;;;;;;5.30;2.78;;;;;;;-2.26;98.96;99641.06;4952522;29;20055;-68
2020/12/25 03:55:51;;;;;;;4.65;2.55;;;;;;;-2.24;99.05;99658.94;4952721;28;20056;-70
2020/12/25 03:58:37;;;;;;;5.57;2.80;;;;;;;-2.24;98.55;99657.19;4952775;28;20063;-68
2020/12/25 04:01:24;;;;;;;5.45;2.75;;;;;;;-2.23;98.08;99661.47;4952212;28;20047;-70
2020/12/25 04:04:10;;;;;;;5.43;3.03;;;;;;;-2.24;98.17;99664.88;4952261;28;20051;-70
2020/12/25 04:06:57;;;;;;;4.85;3.10;;;;;;;-2.24;97.73;99664.88;4948468;29;20055;-69
2020/12/25 04:09:43;;;;;;;6.18;3.25;;;;;;;-2.27;98.22;99667.56;4954092;28;20044;-70
2020/12/25 04:12:30;;;;;;;5.72;3.22;;;;;;;-2.24;97.78;99676.84;4956525;29;20047;-71
2020/12/25 04:15:17;;;;;;;6.05;2.83;;;;;;;-2.23;98.65;99670.84;4944961;29;20043;-66
2020/12/25 04:18:03;;;;;;;5.10;2.63;;;;;;;-2.27;97.77;99677.78;4956768;29;20047;-68
2020/12/25 04:20:49;;;;;;;4.28;2.45;;;;;;;-2.24;98.88;99679.41;4952500;29;20106;-69
2020/12/25 04:23:36;;;;;;;4.95;2.47;;;;;;;-2.23;98.01;99683.66;4956290;28;20070;-70
2020/12/25 04:26:22;;;;;;;4.55;2.78;;;;;;;-2.23;98.99;99670.84;4943155;29;20118;-65
2020/12/25 04:29:08;;;;;;;4.70;2.53;;;;;;;-2.24;98.30;99690.50;4956510;28;20055;-68
2020/12/25 04:31:55;;;;;;;4.57;2.50;;;;;;;-2.23;98.70;99678.53;4956315;28;20059;-71
2020/12/25 04:34:41;;;;;;;4.90;2.60;;;;;;;-2.22;98.54;99675.09;4942320;29;20109;-68
2020/12/25 04:37:28;;;;;;;4.72;2.83;;;;;;;-2.20;98.49;99683.56;4955091;28;20059;-67
2020/12/25 04:40:14;;;;;;;4.82;2.78;;;;;;;-2.18;98.06;99684.38;4946969;28;20454;-69
2020/12/25 04:43:02;;;;;;;5.10;2.78;;;;;;;-2.19;98.83;99683.50;4952317;29;20102;-68
2020/12/25 04:45:48;;;;;;;4.45;2.53;;;;;;;-2.21;99.28;99685.28;4955643;28;20099;-70
2020/12/25 04:48:36;;;;;;;4.25;2.40;;;;;;;-2.22;99.53;99682.78;4942759;29;20502;-71
2020/12/25 04:51:22;;;;;;;5.72;3.25;;;;;;;-2.24;99.08;99700.75;4955869;28;20487;-71
2020/12/25 04:54:09;;;;;;;4.85;2.60;;;;;;;-2.22;98.27;99705.84;4955708;28;20515;-69
2020/12/25 04:56:58;;;;;;;4.85;2.95;;;;;;;-2.26;99.18;99706.81;4955929;28;20454;-69
2020/12/25 04:59:45;;;;;;;4.93;2.80;;;;;;;-2.24;99.36;99721.22;4955854;28;20371;-70
2020/12/25 05:02:35;;;;;;;4.95;2.60;;;;;;;-2.25;98.79;99709.31;4955973;29;20102;-67
2020/12/25 05:05:30;;;;;;;4.95;2.85;;;;;;;-2.24;99.50;99713.53;4955696;28;20043;-71
2020/12/25 05:08:19;;;;;;;4.32;2.42;;;;;;;-2.22;99.05;99718.63;4955148;28;20173;-71
2020/12/25 05:11:07;;;;;;;4.75;2.63;;;;;;;-2.21;98.92;99717.75;4950146;29;20483;-69
2020/12/25 05:13:54;;;;;;;6.22;3.35;;;;;;;-2.22;98.18;99711.78;4954866;29;20090;-70
2020/12/25 05:16:41;;;;;;;6.15;2.85;;;;;;;-2.21;97.62;99718.59;4955258;28;20054;-69
2020/12/25 05:19:29;;;;;;;4.30;2.67;;;;;;;-2.24;98.36;99716.09;4955128;29;20113;-70
2020/12/25 05:22:18;;;;;;;5.55;2.88;;;;;;;-2.23;98.15;99715.25;4953668;28;20164;-70
2020/12/25 05:25:08;;;;;;;5.03;3.08;;;;;;;-2.26;97.89;99711.94;4955411;29;20543;-70
2020/12/25 05:27:55;;;;;;;5.55;3.00;;;;;;;-2.26;98.52;99714.47;4955399;29;20052;-71
2020/12/25 05:30:44;;;;;;;5.75;3.10;;;;;;;-2.24;97.83;99718.66;4955337;28;20387;-67
2020/12/25 05:33:32;;;;;;;7.75;3.00;;;;;;;-2.26;98.29;99725.56;4941853;29;20075;-70
2020/12/25 05:36:19;;;;;;;4.90;2.97;;;;;;;-2.27;98.05;99725.63;4955308;28;20055;-70
2020/12/25 05:39:05;;;;;;;5.32;3.13;;;;;;;-2.28;98.64;99722.19;4941973;29;20059;-69
2020/12/25 05:41:56;;;;;;;5.60;2.95;;;;;;;-2.23;97.91;99730.59;4951646;28;20062;-71
2020/12/25 05:44:47;;;;;;;5.68;3.33;;;;;;;-2.27;97.71;99735.84;4954844;29;20047;-71
2020/12/25 05:47:34;;;;;;;5.43;3.25;;;;;;;-2.27;98.12;99740.97;4941522;29;20070;-68
2020/12/25 05:50:20;;;;;;;5.75;3.40;;;;;;;-2.26;98.63;99745.22;4941294;29;20055;-72
2020/12/25 05:53:08;;;;;;;7.72;3.30;;;;;;;-2.25;98.53;99745.16;4955075;28;20135;-66
2020/12/25 05:55:56;;;;;;;6.13;3.05;;;;;;;-2.23;97.95;99756.22;4954568;28;20141;-71
2020/12/25 05:58:44;;;;;;;5.70;3.90;;;;;;;-2.23;98.67;99765.59;4954906;28;20055;-71
2020/12/25 06:01:31;;;;;;;7.70;3.33;;;;;;;-2.22;99.12;99767.31;4954552;29;20554;-68
2020/12/25 06:04:17;;;;;;;6.25;3.55;;;;;;;-2.21;97.96;99769.81;4955008;29;20517;-68
2020/12/25 06:07:10;;;;;;;7.35;3.55;;;;;;;-2.24;98.74;99772.44;4954644;28;20082;-68
2020/12/25 06:09:59;;;;;;;5.82;3.10;;;;;;;-2.29;97.99;99769.16;4954303;28;20510;-69
2020/12/25 06:12:46;;;;;;;6.10;3.60;;;;;;;-2.24;98.06;99782.69;4954371;28;20404;-72
2020/12/25 06:15:35;;;;;;;4.72;3.10;;;;;;;-2.19;97.74;99785.13;4940828;29;20051;-67
2020/12/25 06:18:40;;;;;;;5.10;3.05;;;;;;;-2.19;97.74;99790.25;4954418;28;20510;-70
2020/12/25 06:21:36;;;;;;;6.72;3.70;;;;;;;-2.26;97.92;99799.00;4940743;29;20051;-69
2020/12/25 06:24:29;;;;;;;6.47;3.65;;;;;;;-2.28;98.11;99796.44;4953606;29;20061;-72
2020/12/25 06:27:16;;;;;;;6.33;3.40;;;;;;;-2.23;97.33;99797.19;4954345;29;20051;-68
2020/12/25 06:30:05;;;;;;;7.10;3.67;;;;;;;-2.24;97.04;99797.22;4953805;29;20578;-70
2020/12/25 06:32:53;;;;;;;5.53;3.67;;;;;;;-2.23;97.74;99804.00;4940222;29;20395;-71
2020/12/25 06:35:43;;;;;;;5.35;3.42;;;;;;;-2.24;97.98;99815.97;4938567;28;20047;-71
2020/12/25 06:38:41;;;;;;;5.40;3.58;;;;;;;-2.23;97.04;99815.13;4951766;28;20047;-67
2020/12/25 06:41:27;;;;;;;7.70;4.25;;;;;;;-2.29;96.77;99817.81;4953954;29;20487;-69
2020/12/25 06:44:16;;;;;;;8.05;3.92;;;;;;;-2.27;96.64;99817.81;4953569;28;20058;-73
2020/12/25 06:47:03;;;;;;;11.98;4.10;;;;;;;-2.32;97.91;99813.66;4952707;29;20055;-72
2020/12/25 06:49:49;;;;;;;6.68;4.03;;;;;;;-2.33;97.65;99819.66;4953833;29;20212;-70
2020/12/25 06:52:56;;;;;;;7.75;4.25;;;;;;;-2.29;96.44;99834.91;4953637;29;20043;-70
2020/12/25 06:55:44;;;;;;;6.93;4.13;;;;;;;-2.32;96.12;99839.25;4949746;29;20051;-68
2020/12/25 06:58:35;;;;;;;9.23;4.40;;;;;;;-2.37;97.22;99840.25;4952257;28;20055;-65
2020/12/25 07:01:38;;;;;;;8.32;4.55;;;;;;;-2.41;96.36;99841.22;4953173;29;20067;-69
2020/12/25 07:04:30;;;;;;;7.38;4.00;;;;;;;-2.39;97.68;99845.41;4939528;29;20055;-73
2020/12/25 07:07:20;;;;;;;8.20;4.38;;;;;;;-2.39;97.58;99845.41;4953280;28;20122;-68
2020/12/25 07:10:11;;;;;;;7.57;4.38;;;;;;;-2.42;97.24;99849.75;4953690;29;20137;-69
2020/12/25 07:12:57;;;;;;;8.52;3.97;;;;;;;-2.42;97.01;99850.63;4953215;28;20066;-73
2020/12/25 07:15:46;;;;;;;7.90;4.65;;;;;;;-2.43;96.80;99855.75;4952989;29;20495;-69
2020/12/25 07:18:33;;;;;;;9.02;4.93;;;;;;;-2.44;96.33;99860.03;4950679;28;20154;-66
2020/12/25 07:21:19;;;;;;;6.93;3.78;;;;;;;-2.46;96.12;99858.41;4952799;29;20102;-68
2020/12/25 07:24:06;;;;;;;7.63;4.70;;;;;;;-2.43;97.02;99864.28;4939817;29;20078;-69
2020/12/25 07:26:54;;;;;;;7.13;4.18;;;;;;;-2.42;96.55;99871.09;4939819;29;20079;-69
2020/12/25 07:29:42;;;;;;;10.18;4.88;;;;;;;-2.49;95.93;99873.84;4952608;29;20051;-69
2020/12/25 07:32:30;;;;;;;6.63;4.30;;;;;;;-2.47;96.61;99880.63;4952554;28;20043;-71
2020/12/25 07:35:19;;;;;;;7.47;3.97;;;;;;;-2.46;97.01;99895.09;4952708;29;20051;-70
2020/12/25 07:38:05;;;;;;;6.95;4.45;;;;;;;-2.50;96.85;99890.91;4953023;29;20510;-66
2020/12/25 07:40:52;;;;;;;7.07;4.20;;;;;;;-2.52;95.85;99882.41;4953882;28;20462;-68
2020/12/25 07:43:38;;;;;;;5.68;3.47;;;;;;;-2.51;95.88;99906.34;4951770;28;20055;-74
2020/12/25 07:46:25;;;;;;;9.00;4.47;;;;;;;-2.53;95.63;99893.53;4952601;29;20044;-70
2020/12/25 07:49:11;;;;;;;7.57;3.97;;;;;;;-2.55;95.13;99899.59;4952588;28;20051;-68
2020/12/25 07:51:58;;;;;;;6.28;3.38;;;;;;;-2.49;96.19;99902.00;4952227;28;20055;-69
2020/12/25 07:54:45;;;;;;;7.38;3.92;;;;;;;-2.57;96.05;99907.28;4952093;29;20043;-69
2020/12/25 07:57:31;;;;;;;6.38;3.53;;;;;;;-2.57;95.41;99907.28;4952441;28;20047;-69
2020/12/25 08:00:18;;;;;;;6.68;4.07;;;;;;;-2.59;95.85;99917.56;4952331;28;20446;-69
2020/12/25 08:03:05;;;;;;;6.80;4.25;;;;;;;-2.55;95.20;99920.06;4952524;29;20047;-69
2020/12/25 08:05:52;;;;;;;7.38;4.15;;;;;;;-2.61;94.91;99924.47;4938770;29;20138;-69
2020/12/25 08:08:43;;;;;;;6.68;4.00;;;;;;;-2.62;96.15;99933.00;4952435;28;20084;-68
2020/12/25 08:11:31;;;;;;;6.35;3.70;;;;;;;-2.62;95.33;99938.13;4938729;29;20051;-68
2020/12/25 08:14:21;;;;;;;8.55;3.55;;;;;;;-2.61;95.87;99946.66;4952276;29;20110;-71
2020/12/25 08:17:08;;;;;;;6.43;4.20;;;;;;;-2.63;96.29;99946.69;4938231;29;20083;-68
2020/12/25 08:19:55;;;;;;;7.68;5.40;;;;;;;-2.61;95.92;99950.06;4952364;28;20154;-66
2020/12/25 08:22:41;;;;;;;9.50;5.18;;;;;;;-2.62;96.38;99940.69;4942435;28;20087;-72
2020/12/25 08:25:29;;;;;;;8.60;4.93;;;;;;;-2.63;96.62;99944.13;4951933;28;20137;-70
2020/12/25 08:28:15;;;;;;;9.45;5.35;;;;;;;-2.62;95.44;99944.97;4952362;28;20102;-67
2020/12/25 08:31:17;;;;;;;7.97;5.28;;;;;;;-2.66;95.64;99941.66;4952278;29;20514;-72
2020/12/25 08:34:04;;;;;;;8.60;4.60;;;;;;;-2.69;95.40;99956.22;4952710;28;20055;-73
2020/12/25 08:36:58;;;;;;;8.05;4.32;;;;;;;-2.74;95.25;99947.81;4951968;28;20102;-69
2020/12/25 08:39:44;;;;;;;7.15;4.25;;;;;;;-2.78;95.21;99954.72;4952051;29;20048;-68
2020/12/25 08:42:31;;;;;;;9.35;4.75;;;;;;;-2.75;96.27;99946.97;4951625;29;20063;-71
2020/12/25 08:45:20;;;;;;;7.72;4.63;;;;;;;-2.80;95.94;99960.72;4938718;29;20123;-67
2020/12/25 08:48:12;;;;;;;7.00;4.30;;;;;;;-2.80;95.30;99965.84;4948107;29;20094;-70
2020/12/25 08:51:12;;;;;;;8.60;5.00;;;;;;;-2.85;95.58;99961.69;4948151;29;20495;-66
2020/12/25 08:53:58;;;;;;;7.03;4.28;;;;;;;-2.87;95.75;99965.16;4950987;28;20066;-69
2020/12/25 08:56:45;;;;;;;8.13;4.40;;;;;;;-2.91;96.33;99973.75;4954235;28;20048;-71
2020/12/25 08:59:31;;;;;;;9.98;4.57;;;;;;;-2.89;95.05;99980.53;4955325;28;20383;-71
2020/12/25 09:02:17;;;;;;;7.75;4.35;;;;;;;-2.89;95.17;99979.69;4955128;29;20059;-70
2020/12/25 09:05:04;;;;;;;8.77;4.63;;;;;;;-2.91;94.65;99979.72;4954965;28;20439;-71
2020/12/25 09:07:50;;;;;;;8.07;4.22;;;;;;;-2.91;95.25;99982.28;4939148;29;20118;-68
2020/12/25 09:10:37;;;;;;;7.78;4.53;;;;;;;-2.90;94.96;99990.78;4958880;28;20055;-65
2020/12/25 09:13:23;;;;;;;9.30;4.47;;;;;;;-2.90;96.19;99990.78;4941537;29;20047;-71
2020/12/25 09:16:10;;;;;;;6.88;4.05;;;;;;;-2.89;95.11;99989.94;4954887;29;20083;-68
2020/12/25 09:18:59;;;;;;;6.53;4.00;;;;;;;-2.97;94.62;99999.47;4941780;29;20059;-70
2020/12/25 09:21:46;;;;;;;6.55;3.40;;;;;;;-2.96;94.89;99981.53;4954182;28;20055;-69
2020/12/25 09:24:33;;;;;;;7.63;3.67;;;;;;;-2.99;94.83;99991.84;4954384;28;20048;-70
2020/12/25 09:27:19;;;;;;;6.90;3.80;;;;;;;-3.04;95.39;99988.50;4952069;29;20150;-67
2020/12/25 09:30:05;;;;;;;7.35;3.83;;;;;;;-3.08;94.44;99989.47;4941498;29;20051;-70
2020/12/25 09:32:52;;;;;;;6.13;3.42;;;;;;;-3.08;94.17;100003.97;4954725;28;20051;-71
2020/12/25 09:35:38;;;;;;;6.63;4.00;;;;;;;-3.02;95.05;100006.41;4954313;28;20082;-67
2020/12/25 09:38:25;;;;;;;6.68;3.83;;;;;;;-3.05;94.82;100007.28;4950386;29;20054;-68
2020/12/25 09:41:12;;;;;;;7.30;3.85;;;;;;;-3.13;94.68;100002.34;4951866;29;20055;-72
2020/12/25 09:43:59;;;;;;;9.82;4.22;;;;;;;-3.13;93.75;100012.59;4954385;29;20059;-66
2020/12/25 09:46:45;;;;;;;6.10;3.60;;;;;;;-3.20;93.89;100005.06;4954416;28;20450;-69
2020/12/25 09:49:32;;;;;;;5.65;3.25;;;;;;;-3.17;93.51;100005.84;4954586;28;20442;-69
2020/12/25 09:52:18;;;;;;;16.33;7.10;;;;;;;-3.16;92.86;100009.25;4954566;29;20102;-68
2020/12/25 09:55:04;;;;;;;6.88;3.72;;;;;;;-3.15;94.16;100008.34;4941128;29;20130;-68
2020/12/25 09:57:51;;;;;;;6.70;3.80;;;;;;;-3.16;93.87;100011.78;4953971;28;20679;-69
2020/12/25 10:00:37;;;;;;;8.48;4.00;;;;;;;-3.12;94.42;100006.59;4954050;29;20082;-70
2020/12/25 10:03:24;;;;;;;6.90;3.40;;;;;;;-3.15;94.15;100010.91;4954150;28;20059;-69
2020/12/25 10:06:11;;;;;;;6.50;3.45;;;;;;;-3.20;93.58;100008.44;4954455;28;20055;-70
2020/12/25 10:08:57;;;;;;;6.47;3.33;;;;;;;-3.16;94.43;100004.97;4953812;28;20086;-70
2020/12/25 10:11:44;;;;;;;5.53;3.28;;;;;;;-3.12;93.23;100013.44;4953916;28;20161;-68
2020/12/25 10:14:30;;;;;;;6.53;3.33;;;;;;;-3.17;92.30;100007.56;4953873;29;20074;-66
2020/12/25 10:17:17;;;;;;;6.05;3.42;;;;;;;-3.15;93.04;100018.59;4953640;29;20058;-72
2020/12/25 10:20:03;;;;;;;5.28;3.30;;;;;;;-3.15;92.62;100010.91;4941162;29;20051;-69
2020/12/25 10:22:49;;;;;;;5.05;3.20;;;;;;;-3.12;94.27;100021.09;4929298;29;20052;-71
2020/12/25 10:25:36;;;;;;;5.60;3.35;;;;;;;-3.12;93.27;100021.09;4915885;29;20491;-67
2020/12/25 10:28:23;;;;;;;6.10;3.65;;;;;;;-3.16;93.34;100017.75;4929297;29;20054;-66
2020/12/25 10:31:09;;;;;;;6.38;3.17;;;;;;;-3.22;93.41;100024.72;4921323;29;20091;-70
2020/12/25 10:33:56;;;;;;;6.72;3.47;;;;;;;-3.23;93.39;100028.13;4928736;29;20048;-69
2020/12/25 10:36:43;;;;;;;5.63;2.83;;;;;;;-3.21;94.00;100026.38;4929175;29;20381;-67
2020/12/25 10:39:29;;;;;;;5.95;3.08;;;;;;;-3.22;93.85;100022.16;4928740;29;20048;-69
2020/12/25 10:42:15;;;;;;;6.82;3.72;;;;;;;-3.25;94.49;100019.66;4928897;29;20048;-71
2020/12/25 10:45:02;;;;;;;7.05;3.88;;;;;;;-3.38;93.63;100022.41;4928655;29;20059;-70
2020/12/25 10:47:49;;;;;;;4.65;3.17;;;;;;;-3.44;94.12;100021.72;4925684;29;20051;-68
2020/12/25 10:50:35;;;;;;;6.35;3.53;;;;;;;-3.42;94.33;100025.06;4915373;29;20052;-69
2020/12/25 10:53:22;;;;;;;8.27;3.53;;;;;;;-3.47;94.45;100014.94;4928471;29;20079;-68
2020/12/25 10:56:09;;;;;;;8.00;3.42;;;;;;;-3.48;93.41;100020.91;4928706;29;20464;-69
2020/12/25 10:58:55;;;;;;;5.65;2.80;;;;;;;-3.47;93.90;100030.25;4915218;29;20056;-67
2020/12/25 11:01:46;;;;;;;6.13;3.60;;;;;;;-3.44;94.94;100037.03;4928271;29;20067;-69
2020/12/25 11:04:33;;;;;;;8.60;3.55;;;;;;;-3.48;94.81;100031.13;4915430;29;20060;-71
2020/12/25 11:07:19;;;;;;;6.85;3.70;;;;;;;-3.57;94.88;100031.31;4928743;29;20155;-69
2020/12/25 11:10:06;;;;;;;7.78;3.95;;;;;;;-3.52;95.06;100051.66;4915303;29;20048;-66
2020/12/25 11:12:52;;;;;;;6.38;3.90;;;;;;;-3.60;95.08;100049.25;4928747;29;20487;-68
2020/12/25 11:15:42;;;;;;;9.50;4.28;;;;;;;-3.69;94.43;100045.16;4928141;29;20044;-72
2020/12/25 11:18:28;;;;;;;5.93;3.85;;;;;;;-3.74;94.33;100048.66;4928374;29;20519;-69
2020/12/25 11:21:22;;;;;;;6.85;3.33;;;;;;;-3.78;95.42;100040.19;4923126;29;20459;-69
2020/12/25 11:24:09;;;;;;;;;;;;;;;-3.84;94.98;100042.88;4945938;29;20110;-71
2020/12/25 11:26:55;;;;;;;6.15;3.75;;;;;;;-3.81;95.44;100054.72;4957457;28;19989;-67
2020/12/25 11:29:42;;;;;;;10.82;5.35;;;;;;;-3.84;94.87;100044.56;4947535;28;20051;-70
2020/12/25 11:32:28;;;;;;;5.85;3.50;;;;;;;-3.77;95.57;100056.38;4947119;29;20107;-69
2020/12/25 11:35:14;;;;;;;8.45;3.78;;;;;;;-3.86;94.88;100057.34;4945676;29;20106;-70
2020/12/25 11:38:01;;;;;;;8.63;3.53;;;;;;;-3.90;94.83;100061.66;4943873;29;20558;-69
2020/12/25 11:40:47;;;;;;;7.32;4.57;;;;;;;-3.87;94.16;100066.72;4947009;29;20139;-70
2020/12/25 11:43:34;;;;;;;7.63;4.32;;;;;;;-3.91;94.01;100065.09;4933776;29;20087;-69
2020/12/25 11:46:23;;;;;;;6.25;3.47;;;;;;;-3.95;93.45;100063.44;4946798;28;20047;-70
2020/12/25 11:49:10;;;;;;;7.22;3.35;;;;;;;-3.92;94.06;100060.84;4933559;29;20056;-66
2020/12/25 11:51:56;;;;;;;6.65;3.63;;;;;;;-3.90;94.75;100060.81;4933615;29;20145;-67
2020/12/25 11:54:43;;;;;;;7.38;3.72;;;;;;;-3.87;94.45;100061.63;4933528;29;20123;-68
2020/12/25 11:57:29;;;;;;;6.45;3.83;;;;;;;-3.87;94.75;100055.69;4947075;29;20517;-67
2020/12/25 12:00:16;;;;;;;6.18;3.33;;;;;;;-3.86;94.75;100068.41;4947016;29;20044;-69
2020/12/25 12:03:02;;;;;;;6.28;3.25;;;;;;;-3.89;94.07;100076.16;4947053;29;20075;-68
2020/12/25 12:05:48;;;;;;;6.28;3.97;;;;;;;-3.94;93.19;100080.47;4946488;29;20229;-66
2020/12/25 12:08:36;;;;;;;6.32;3.75;;;;;;;-3.97;93.33;100069.47;4939407;29;20056;-69
2020/12/25 12:11:22;;;;;;;5.53;2.95;;;;;;;-3.97;93.25;100072.03;4946652;29;20533;-68
2020/12/25 12:14:09;;;;;;;6.88;3.80;;;;;;;-3.94;94.71;100074.50;4933196;29;20055;-70
2020/12/25 12:16:55;;;;;;;6.40;3.33;;;;;;;-3.94;93.41;100077.06;4946191;28;20091;-69
2020/12/25 12:19:42;;;;;;;8.20;4.72;;;;;;;-4.03;92.94;100084.88;4947286;29;20047;-69
2020/12/25 12:22:28;;;;;;;5.40;3.20;;;;;;;-4.02;92.33;100092.53;4945116;28;20102;-66
2020/12/25 12:25:14;;;;;;;6.45;3.45;;;;;;;-4.05;92.30;100081.50;4946385;28;20138;-69
2020/12/25 12:28:01;;;;;;;5.40;3.22;;;;;;;-4.14;91.92;100088.41;4946675;29;20058;-67
2020/12/25 12:30:49;;;;;;;4.63;3.10;;;;;;;-4.10;92.65;100085.84;4947396;28;20087;-68
2020/12/25 12:33:36;;;;;;;6.55;4.18;;;;;;;-4.08;93.82;100090.06;4949916;29;20098;-69
2020/12/25 12:36:22;;;;;;;4.68;2.40;;;;;;;-4.13;92.28;100090.13;4950401;29;20044;-71
2020/12/25 12:39:09;;;;;;;6.43;3.40;;;;;;;-4.14;92.22;100087.59;4949760;29;20058;-67
2020/12/25 12:42:05;;;;;;;4.85;2.88;;;;;;;-4.15;92.65;100088.47;4949951;29;20047;-69
2020/12/25 12:44:51;;;;;;;5.55;3.50;;;;;;;-4.16;92.54;100085.06;4950331;29;20051;-68
2020/12/25 12:47:38;;;;;;;5.72;3.60;;;;;;;-4.12;94.03;100085.88;4936835;29;20074;-68
2020/12/25 12:50:24;;;;;;;6.68;3.58;;;;;;;-4.13;93.17;100073.94;4933579;29;20078;-68
2020/12/25 12:53:11;;;;;;;6.47;3.38;;;;;;;-4.16;93.74;100081.66;4950362;29;20056;-68
2020/12/25 12:55:57;;;;;;;7.20;3.80;;;;;;;-4.19;93.61;100081.69;4936326;29;20051;-70
2020/12/25 12:58:44;;;;;;;6.25;4.15;;;;;;;-4.21;92.94;100086.84;4950112;29;20451;-71
2020/12/25 13:01:30;;;;;;;6.72;3.72;;;;;;;-4.24;93.20;100091.13;4933650;29;20135;-67
2020/12/25 13:04:17;;;;;;;6.63;3.38;;;;;;;-4.24;93.38;100089.44;4936480;29;20056;-71
2020/12/25 13:07:04;;;;;;;5.63;3.58;;;;;;;-4.24;93.57;100079.22;4949966;28;20059;-66